UAL555C KMIA-KMCO
Flight info
| Callsign | UAL555C |
|---|---|
| Flight time | 0h 40m |
| Altitude | 22000 |
| Route | FLMGO2 WAPOM MUNGI1 |
| Aircraft | A320/M-SDE3FGHIRWY/LB1 |
Departure
| Time | 2026-05-06 19:27 |
|---|---|
| Airport | Miami International Airport (KMIA) |
Arrival
| Time | 2026-05-06 20:08 |
|---|---|
| Airport | Orlando International Airport (KMCO) |
| Time | Latitude | Longitude | Altitude | Speed | Heading |
|---|---|---|---|---|---|
| 2026-05-06 19:04 | 25.79692 | -80.28711 | 14 ft | 0 kts | 58° |
| 2026-05-06 19:16 | 25.79688 | -80.28719 | 15 ft | 2 kts | 58° |
| 2026-05-06 19:16 | 25.79680 | -80.28732 | 14 ft | 2 kts | 58° |
| 2026-05-06 19:16 | 25.79675 | -80.28741 | 15 ft | 2 kts | 55° |
| 2026-05-06 19:16 | 25.79663 | -80.28749 | 15 ft | 2 kts | 2° |
| 2026-05-06 19:17 | 25.79648 | -80.28745 | 15 ft | 2 kts | 319° |
| 2026-05-06 19:17 | 25.79641 | -80.28732 | 15 ft | 1 kts | 277° |
| 2026-05-06 19:17 | 25.79641 | -80.28725 | 15 ft | 1 kts | 267° |
| 2026-05-06 19:17 | 25.79641 | -80.28722 | 15 ft | 0 kts | 270° |
| 2026-05-06 19:22 | 25.79641 | -80.28732 | 14 ft | 2 kts | 270° |
| 2026-05-06 19:22 | 25.79641 | -80.28755 | 15 ft | 3 kts | 271° |
| 2026-05-06 19:22 | 25.79643 | -80.28791 | 15 ft | 5 kts | 274° |
| 2026-05-06 19:22 | 25.79647 | -80.28840 | 15 ft | 6 kts | 275° |
| 2026-05-06 19:23 | 25.79658 | -80.28896 | 15 ft | 8 kts | 290° |
| 2026-05-06 19:23 | 25.79682 | -80.28959 | 14 ft | 9 kts | 293° |
| 2026-05-06 19:23 | 25.79710 | -80.29034 | 14 ft | 11 kts | 292° |
| 2026-05-06 19:23 | 25.79767 | -80.29089 | 14 ft | 11 kts | 349° |
| 2026-05-06 19:24 | 25.79848 | -80.29093 | 14 ft | 12 kts | 360° |
| 2026-05-06 19:24 | 25.79916 | -80.29135 | 14 ft | 12 kts | 294° |
| 2026-05-06 19:24 | 25.79916 | -80.29224 | 14 ft | 12 kts | 266° |
| 2026-05-06 19:24 | 25.79911 | -80.29319 | 14 ft | 10 kts | 269° |
| 2026-05-06 19:25 | 25.79951 | -80.29376 | 14 ft | 10 kts | 348° |
| 2026-05-06 19:25 | 25.79994 | -80.29378 | 13 ft | 0 kts | 10° |
| 2026-05-06 19:26 | 25.79995 | -80.29378 | 13 ft | 1 kts | 10° |
| 2026-05-06 19:26 | 25.80061 | -80.29334 | 13 ft | 20 kts | 56° |
| 2026-05-06 19:26 | 25.80116 | -80.28970 | 14 ft | 82 kts | 86° |
| 2026-05-06 19:26 | 25.80156 | -80.28088 | 14 ft | 142 kts | 88° |
| 2026-05-06 19:27 | 25.80205 | -80.26852 | 220 ft | 171 kts | 88° |
| 2026-05-06 19:27 | 25.80255 | -80.25532 | 796 ft | 174 kts | 88° |
| 2026-05-06 19:27 | 25.80308 | -80.24236 | 1550 ft | 169 kts | 87° |
| 2026-05-06 19:27 | 25.80364 | -80.22910 | 2107 ft | 178 kts | 87° |
| 2026-05-06 19:28 | 25.80425 | -80.21501 | 2471 ft | 193 kts | 87° |
| 2026-05-06 19:28 | 25.80490 | -80.19938 | 2829 ft | 210 kts | 87° |
| 2026-05-06 19:28 | 25.80721 | -80.18287 | 3124 ft | 231 kts | 68° |
| 2026-05-06 19:28 | 25.81696 | -80.16785 | 3482 ft | 251 kts | 39° |
| 2026-05-06 19:29 | 25.83309 | -80.15936 | 3965 ft | 268 kts | 10° |
| 2026-05-06 19:29 | 25.85182 | -80.15842 | 4745 ft | 271 kts | 2° |
| 2026-05-06 19:29 | 25.87051 | -80.15796 | 5572 ft | 273 kts | 2° |
| 2026-05-06 19:29 | 25.88945 | -80.15830 | 6388 ft | 276 kts | 355° |
| 2026-05-06 19:30 | 25.90838 | -80.16207 | 7218 ft | 278 kts | 346° |
| 2026-05-06 19:30 | 25.92698 | -80.16819 | 8069 ft | 280 kts | 343° |
| 2026-05-06 19:30 | 25.94543 | -80.17471 | 8914 ft | 280 kts | 343° |
| 2026-05-06 19:30 | 25.96395 | -80.18129 | 9734 ft | 281 kts | 344° |
| 2026-05-06 19:31 | 25.98214 | -80.18930 | 10471 ft | 286 kts | 335° |
| 2026-05-06 19:31 | 25.99980 | -80.20142 | 10893 ft | 305 kts | 325° |
| 2026-05-06 19:31 | 26.03322 | -80.23372 | 11910 ft | 327 kts | 321° |
| 2026-05-06 19:32 | 26.04994 | -80.25053 | 12622 ft | 329 kts | 321° |
| 2026-05-06 19:32 | 26.06701 | -80.26764 | 13326 ft | 331 kts | 322° |
| 2026-05-06 19:32 | 26.08405 | -80.28462 | 14010 ft | 333 kts | 322° |
| 2026-05-06 19:32 | 26.10146 | -80.30193 | 14687 ft | 334 kts | 321° |
| 2026-05-06 19:33 | 26.11886 | -80.31921 | 15341 ft | 337 kts | 321° |
| 2026-05-06 19:33 | 26.13637 | -80.33664 | 15983 ft | 339 kts | 321° |
| 2026-05-06 19:33 | 26.15403 | -80.35422 | 16630 ft | 340 kts | 321° |
| 2026-05-06 19:33 | 26.17162 | -80.37172 | 17066 ft | 348 kts | 320° |
| 2026-05-06 19:34 | 26.19001 | -80.39002 | 17511 ft | 354 kts | 320° |
| 2026-05-06 19:34 | 26.20838 | -80.40809 | 18083 ft | 356 kts | 322° |
| 2026-05-06 19:34 | 26.22837 | -80.42471 | 18689 ft | 356 kts | 327° |
| 2026-05-06 19:34 | 26.24954 | -80.43886 | 19269 ft | 357 kts | 332° |
| 2026-05-06 19:35 | 26.27188 | -80.45122 | 19824 ft | 360 kts | 334° |
| 2026-05-06 19:35 | 26.29457 | -80.46331 | 20364 ft | 362 kts | 334° |
| 2026-05-06 19:35 | 26.31727 | -80.47534 | 20900 ft | 364 kts | 334° |
| 2026-05-06 19:35 | 26.34005 | -80.48742 | 21442 ft | 366 kts | 334° |
| 2026-05-06 19:36 | 26.36306 | -80.49964 | 21885 ft | 368 kts | 333° |
| 2026-05-06 19:36 | 26.38619 | -80.51197 | 22042 ft | 369 kts | 333° |
| 2026-05-06 19:36 | 26.40955 | -80.52441 | 22045 ft | 368 kts | 333° |
| 2026-05-06 19:36 | 26.43274 | -80.53676 | 22044 ft | 368 kts | 333° |
| 2026-05-06 19:37 | 26.45590 | -80.54900 | 22042 ft | 368 kts | 334° |
| 2026-05-06 19:37 | 26.47946 | -80.56011 | 22048 ft | 369 kts | 337° |
| 2026-05-06 19:37 | 26.50377 | -80.56983 | 22046 ft | 369 kts | 340° |
| 2026-05-06 19:37 | 26.52007 | -80.57543 | 22040 ft | 369 kts | 342° |
| 2026-05-06 19:38 | 26.55290 | -80.58598 | 22044 ft | 370 kts | 342° |
| 2026-05-06 19:38 | 26.57766 | -80.59384 | 22046 ft | 370 kts | 342° |
| 2026-05-06 19:38 | 26.60261 | -80.60176 | 22047 ft | 369 kts | 342° |
| 2026-05-06 19:38 | 26.62722 | -80.60958 | 22051 ft | 369 kts | 342° |
| 2026-05-06 19:39 | 26.65188 | -80.61742 | 22049 ft | 369 kts | 342° |
| 2026-05-06 19:39 | 26.67693 | -80.62539 | 22050 ft | 369 kts | 342° |
| 2026-05-06 19:39 | 26.70136 | -80.63317 | 22049 ft | 369 kts | 342° |
| 2026-05-06 19:39 | 26.72636 | -80.64114 | 22047 ft | 369 kts | 342° |
| 2026-05-06 19:40 | 26.75098 | -80.64898 | 22049 ft | 369 kts | 342° |
| 2026-05-06 19:40 | 26.77589 | -80.65692 | 22053 ft | 369 kts | 341° |
| 2026-05-06 19:40 | 26.80075 | -80.66486 | 22055 ft | 369 kts | 341° |
| 2026-05-06 19:40 | 26.82538 | -80.67272 | 22056 ft | 369 kts | 341° |
| 2026-05-06 19:41 | 26.85018 | -80.68063 | 22053 ft | 370 kts | 341° |
| 2026-05-06 19:41 | 26.87507 | -80.68859 | 22050 ft | 370 kts | 341° |
| 2026-05-06 19:41 | 26.89981 | -80.69649 | 22054 ft | 370 kts | 341° |
| 2026-05-06 19:41 | 26.92462 | -80.70515 | 22055 ft | 370 kts | 339° |
| 2026-05-06 19:42 | 26.94907 | -80.71430 | 22056 ft | 369 kts | 339° |
| 2026-05-06 19:42 | 26.97343 | -80.72350 | 22059 ft | 369 kts | 339° |
| 2026-05-06 19:42 | 26.99773 | -80.73269 | 22063 ft | 369 kts | 339° |
| 2026-05-06 19:42 | 27.02201 | -80.74187 | 22059 ft | 368 kts | 339° |
| 2026-05-06 19:43 | 27.04643 | -80.75113 | 22057 ft | 368 kts | 339° |
| 2026-05-06 19:43 | 27.07069 | -80.76032 | 22053 ft | 368 kts | 339° |
| 2026-05-06 19:43 | 27.09511 | -80.76957 | 22052 ft | 369 kts | 339° |
| 2026-05-06 19:43 | 27.11984 | -80.77895 | 22060 ft | 368 kts | 339° |
| 2026-05-06 19:44 | 27.14398 | -80.78811 | 22057 ft | 368 kts | 339° |
| 2026-05-06 19:44 | 27.16841 | -80.79738 | 22058 ft | 368 kts | 339° |
| 2026-05-06 19:44 | 27.19261 | -80.80656 | 22052 ft | 368 kts | 339° |
| 2026-05-06 19:44 | 27.21697 | -80.81583 | 22050 ft | 368 kts | 339° |
| 2026-05-06 19:45 | 27.24148 | -80.82513 | 22052 ft | 369 kts | 339° |
| 2026-05-06 19:45 | 27.26600 | -80.83446 | 22053 ft | 369 kts | 339° |
| 2026-05-06 19:45 | 27.29028 | -80.84370 | 22055 ft | 369 kts | 339° |
| 2026-05-06 19:45 | 27.31458 | -80.85283 | 22055 ft | 370 kts | 340° |
| 2026-05-06 19:46 | 27.33939 | -80.86087 | 22061 ft | 371 kts | 342° |
| 2026-05-06 19:46 | 27.36462 | -80.86841 | 22062 ft | 371 kts | 342° |
| 2026-05-06 19:46 | 27.38952 | -80.87579 | 22058 ft | 371 kts | 342° |
| 2026-05-06 19:46 | 27.41446 | -80.88317 | 22051 ft | 371 kts | 342° |
| 2026-05-06 19:47 | 27.43939 | -80.89058 | 22054 ft | 371 kts | 342° |
| 2026-05-06 19:47 | 27.46443 | -80.89801 | 22048 ft | 371 kts | 342° |
| 2026-05-06 19:47 | 27.48936 | -80.90543 | 22043 ft | 371 kts | 342° |
| 2026-05-06 19:47 | 27.51464 | -80.91296 | 22041 ft | 371 kts | 342° |
| 2026-05-06 19:48 | 27.53965 | -80.92041 | 22038 ft | 370 kts | 342° |
| 2026-05-06 19:48 | 27.56450 | -80.92781 | 22035 ft | 371 kts | 342° |
| 2026-05-06 19:48 | 27.58952 | -80.93528 | 22030 ft | 370 kts | 342° |
| 2026-05-06 19:48 | 27.61410 | -80.94259 | 21800 ft | 365 kts | 342° |
| 2026-05-06 19:49 | 27.63881 | -80.94997 | 21215 ft | 365 kts | 342° |
| 2026-05-06 19:49 | 27.66330 | -80.95732 | 20619 ft | 364 kts | 342° |
| 2026-05-06 19:49 | 27.68766 | -80.96461 | 20080 ft | 362 kts | 343° |
| 2026-05-06 19:49 | 27.71184 | -80.97186 | 19557 ft | 360 kts | 343° |
| 2026-05-06 19:50 | 27.73616 | -80.97913 | 19028 ft | 357 kts | 343° |
| 2026-05-06 19:50 | 27.75985 | -80.98621 | 18522 ft | 355 kts | 343° |
| 2026-05-06 19:50 | 27.78362 | -80.99335 | 18013 ft | 353 kts | 343° |
| 2026-05-06 19:50 | 27.80742 | -81.00049 | 17496 ft | 351 kts | 344° |
| 2026-05-06 19:51 | 27.83115 | -81.00760 | 16954 ft | 349 kts | 344° |
| 2026-05-06 19:51 | 27.85436 | -81.01457 | 16441 ft | 347 kts | 344° |
| 2026-05-06 19:51 | 27.87759 | -81.02151 | 15944 ft | 345 kts | 345° |
| 2026-05-06 19:51 | 27.90089 | -81.02850 | 15452 ft | 343 kts | 345° |
| 2026-05-06 19:52 | 27.92382 | -81.03548 | 14962 ft | 340 kts | 343° |
| 2026-05-06 19:52 | 27.94634 | -81.04364 | 14492 ft | 338 kts | 340° |
| 2026-05-06 19:52 | 27.96810 | -81.05268 | 14010 ft | 336 kts | 340° |
| 2026-05-06 19:52 | 27.98987 | -81.06189 | 13521 ft | 333 kts | 340° |
| 2026-05-06 19:53 | 28.01161 | -81.07111 | 13021 ft | 332 kts | 340° |
| 2026-05-06 19:53 | 28.03341 | -81.08035 | 12525 ft | 330 kts | 340° |
| 2026-05-06 19:53 | 28.05470 | -81.08938 | 12022 ft | 329 kts | 340° |
| 2026-05-06 19:53 | 28.07613 | -81.09847 | 11536 ft | 328 kts | 340° |
| 2026-05-06 19:54 | 28.09742 | -81.10764 | 11047 ft | 327 kts | 340° |
| 2026-05-06 19:54 | 28.11864 | -81.11698 | 10565 ft | 325 kts | 339° |
| 2026-05-06 19:54 | 28.13993 | -81.12638 | 10069 ft | 324 kts | 339° |
| 2026-05-06 19:54 | 28.16093 | -81.13567 | 9567 ft | 323 kts | 340° |
| 2026-05-06 19:55 | 28.18148 | -81.14475 | 9289 ft | 315 kts | 340° |
| 2026-05-06 19:55 | 28.20174 | -81.15370 | 9099 ft | 304 kts | 340° |
| 2026-05-06 19:55 | 28.22110 | -81.16224 | 8918 ft | 294 kts | 340° |
| 2026-05-06 19:55 | 28.24000 | -81.17059 | 8748 ft | 284 kts | 340° |
| 2026-05-06 19:56 | 28.25820 | -81.17853 | 8471 ft | 279 kts | 342° |
| 2026-05-06 19:56 | 28.27705 | -81.18394 | 8076 ft | 278 kts | 352° |
| 2026-05-06 19:56 | 28.29627 | -81.18575 | 7684 ft | 278 kts | 359° |
| 2026-05-06 19:56 | 28.31555 | -81.18619 | 7297 ft | 278 kts | 360° |
| 2026-05-06 19:57 | 28.33487 | -81.18642 | 6935 ft | 276 kts | 360° |
| 2026-05-06 19:57 | 28.35388 | -81.18667 | 6725 ft | 269 kts | 360° |
| 2026-05-06 19:57 | 28.37227 | -81.18697 | 6560 ft | 260 kts | 360° |
| 2026-05-06 19:57 | 28.39018 | -81.18728 | 6399 ft | 251 kts | 359° |
| 2026-05-06 19:58 | 28.40745 | -81.18748 | 6236 ft | 243 kts | 360° |
| 2026-05-06 19:58 | 28.42419 | -81.18758 | 5978 ft | 240 kts | 360° |
| 2026-05-06 19:58 | 28.44094 | -81.18770 | 5665 ft | 240 kts | 360° |
| 2026-05-06 19:58 | 28.45770 | -81.18786 | 5347 ft | 240 kts | 0° |
| 2026-05-06 19:59 | 28.47451 | -81.18800 | 5042 ft | 240 kts | 0° |
| 2026-05-06 19:59 | 28.49124 | -81.18813 | 4733 ft | 240 kts | 0° |
| 2026-05-06 19:59 | 28.50788 | -81.18826 | 4498 ft | 236 kts | 0° |
| 2026-05-06 19:59 | 28.52408 | -81.18839 | 4270 ft | 233 kts | 0° |
| 2026-05-06 20:00 | 28.54016 | -81.18851 | 4021 ft | 230 kts | 0° |
| 2026-05-06 20:00 | 28.55649 | -81.18875 | 3969 ft | 232 kts | 360° |
| 2026-05-06 20:00 | 28.57276 | -81.18907 | 3965 ft | 234 kts | 360° |
| 2026-05-06 20:00 | 28.58896 | -81.18936 | 3964 ft | 234 kts | 360° |
| 2026-05-06 20:01 | 28.60528 | -81.18957 | 3963 ft | 235 kts | 359° |
| 2026-05-06 20:01 | 28.62181 | -81.19017 | 3960 ft | 235 kts | 357° |
| 2026-05-06 20:01 | 28.63802 | -81.19257 | 3959 ft | 235 kts | 343° |
| 2026-05-06 20:01 | 28.65290 | -81.20024 | 3961 ft | 235 kts | 324° |
| 2026-05-06 20:02 | 28.66505 | -81.21273 | 3966 ft | 234 kts | 310° |
| 2026-05-06 20:02 | 28.67372 | -81.22816 | 3953 ft | 232 kts | 285° |
| 2026-05-06 20:02 | 28.67609 | -81.24603 | 3965 ft | 231 kts | 269° |
| 2026-05-06 20:02 | 28.67452 | -81.26408 | 3966 ft | 230 kts | 258° |
| 2026-05-06 20:03 | 28.67071 | -81.28173 | 3959 ft | 229 kts | 245° |
| 2026-05-06 20:03 | 28.66102 | -81.29604 | 3944 ft | 228 kts | 213° |
| 2026-05-06 20:03 | 28.64638 | -81.30204 | 3767 ft | 225 kts | 181° |
| 2026-05-06 20:03 | 28.63110 | -81.29913 | 3504 ft | 222 kts | 162° |
| 2026-05-06 20:04 | 28.61651 | -81.29346 | 3228 ft | 221 kts | 160° |
| 2026-05-06 20:04 | 28.60202 | -81.28788 | 2955 ft | 220 kts | 165° |
| 2026-05-06 20:04 | 28.58684 | -81.28477 | 2685 ft | 219 kts | 173° |
| 2026-05-06 20:04 | 28.57182 | -81.28377 | 2423 ft | 217 kts | 178° |
| 2026-05-06 20:05 | 28.55669 | -81.28359 | 2157 ft | 216 kts | 178° |
| 2026-05-06 20:05 | 28.54157 | -81.28356 | 1890 ft | 215 kts | 178° |
| 2026-05-06 20:05 | 28.52684 | -81.28347 | 1618 ft | 207 kts | 177° |
| 2026-05-06 20:05 | 28.51270 | -81.28332 | 1387 ft | 196 kts | 178° |
| 2026-05-06 20:06 | 28.49957 | -81.28316 | 1172 ft | 184 kts | 177° |
| 2026-05-06 20:06 | 28.48710 | -81.28303 | 942 ft | 171 kts | 178° |
| 2026-05-06 20:06 | 28.47564 | -81.28293 | 699 ft | 158 kts | 178° |
| 2026-05-06 20:06 | 28.46513 | -81.28281 | 492 ft | 144 kts | 178° |
| 2026-05-06 20:07 | 28.45526 | -81.28271 | 324 ft | 139 kts | 178° |
| 2026-05-06 20:07 | 28.44552 | -81.28260 | 154 ft | 138 kts | 178° |
| 2026-05-06 20:07 | 28.43654 | -81.28248 | 89 ft | 113 kts | 180° |
| 2026-05-06 20:07 | 28.43003 | -81.28244 | 88 ft | 74 kts | 179° |
| 2026-05-06 20:08 | 28.42666 | -81.28236 | 88 ft | 27 kts | 183° |
| 2026-05-06 20:08 | 28.42543 | -81.28310 | 88 ft | 17 kts | 235° |
| 2026-05-06 20:08 | 28.42498 | -81.28432 | 88 ft | 16 kts | 251° |
| 2026-05-06 20:08 | 28.42459 | -81.28557 | 87 ft | 17 kts | 250° |
| 2026-05-06 20:09 | 28.42419 | -81.28683 | 87 ft | 17 kts | 250° |
| 2026-05-06 20:09 | 28.42378 | -81.28816 | 86 ft | 17 kts | 251° |
| 2026-05-06 20:09 | 28.42336 | -81.28949 | 86 ft | 17 kts | 251° |
| 2026-05-06 20:09 | 28.42300 | -81.29080 | 87 ft | 17 kts | 256° |
| 2026-05-06 20:10 | 28.42284 | -81.29216 | 87 ft | 17 kts | 267° |
| 2026-05-06 20:10 | 28.42283 | -81.29351 | 88 ft | 16 kts | 271° |
| 2026-05-06 20:10 | 28.42284 | -81.29483 | 89 ft | 16 kts | 270° |
| 2026-05-06 20:10 | 28.42282 | -81.29611 | 89 ft | 16 kts | 269° |
| 2026-05-06 20:11 | 28.42280 | -81.29730 | 90 ft | 13 kts | 269° |
| 2026-05-06 20:11 | 28.42280 | -81.29836 | 90 ft | 13 kts | 269° |
| 2026-05-06 20:11 | 28.42279 | -81.29946 | 90 ft | 14 kts | 270° |
| 2026-05-06 20:11 | 28.42279 | -81.30061 | 90 ft | 14 kts | 270° |
| 2026-05-06 20:12 | 28.42309 | -81.30136 | 90 ft | 8 kts | 351° |
| 2026-05-06 20:12 | 28.42372 | -81.30135 | 90 ft | 9 kts | 1° |
| 2026-05-06 20:12 | 28.42437 | -81.30115 | 90 ft | 10 kts | 33° |
| 2026-05-06 20:12 | 28.42496 | -81.30074 | 90 ft | 8 kts | 28° |
| 2026-05-06 20:13 | 28.42525 | -81.30056 | 90 ft | 0 kts | 30° |